sensor_id;sensor_type;location;lat;lon;timestamp;P1;durP1;ratioP1;P2;durP2;ratioP2
41623;SDS011;27319;50.306;18.926;2022-12-11T00:03:32;50.33;;;22.52;;
41623;SDS011;27319;50.306;18.926;2022-12-11T00:07:32;44.67;;;21.92;;
41623;SDS011;27319;50.306;18.926;2022-12-11T00:11:33;48.13;;;21.33;;
41623;SDS011;27319;50.306;18.926;2022-12-11T00:15:34;53.33;;;25.30;;
41623;SDS011;27319;50.306;18.926;2022-12-11T00:19:34;44.63;;;20.95;;
41623;SDS011;27319;50.306;18.926;2022-12-11T00:23:35;47.10;;;24.50;;
41623;SDS011;27319;50.306;18.926;2022-12-11T00:27:36;49.72;;;23.52;;
41623;SDS011;27319;50.306;18.926;2022-12-11T00:31:36;42.10;;;20.65;;
41623;SDS011;27319;50.306;18.926;2022-12-11T00:35:41;43.88;;;20.77;;
41623;SDS011;27319;50.306;18.926;2022-12-11T00:39:40;37.95;;;20.13;;
41623;SDS011;27319;50.306;18.926;2022-12-11T00:43:41;40.33;;;20.08;;
41623;SDS011;27319;50.306;18.926;2022-12-11T00:47:42;42.28;;;19.10;;
41623;SDS011;27319;50.306;18.926;2022-12-11T00:51:42;47.70;;;20.05;;
41623;SDS011;27319;50.306;18.926;2022-12-11T00:55:43;43.17;;;20.30;;
41623;SDS011;27319;50.306;18.926;2022-12-11T00:59:50;51.67;;;24.30;;
41623;SDS011;27319;50.306;18.926;2022-12-11T01:03:51;55.00;;;23.75;;
41623;SDS011;27319;50.306;18.926;2022-12-11T01:07:51;52.17;;;22.48;;
41623;SDS011;27319;50.306;18.926;2022-12-11T01:11:51;63.00;;;25.13;;
41623;SDS011;27319;50.306;18.926;2022-12-11T01:15:52;48.60;;;21.67;;
41623;SDS011;27319;50.306;18.926;2022-12-11T01:19:53;52.33;;;21.52;;
41623;SDS011;27319;50.306;18.926;2022-12-11T01:23:54;50.72;;;22.00;;
41623;SDS011;27319;50.306;18.926;2022-12-11T01:27:54;44.65;;;21.45;;
41623;SDS011;27319;50.306;18.926;2022-12-11T01:31:55;46.83;;;20.48;;
41623;SDS011;27319;50.306;18.926;2022-12-11T01:35:55;45.58;;;18.58;;
41623;SDS011;27319;50.306;18.926;2022-12-11T01:39:56;43.40;;;19.08;;
41623;SDS011;27319;50.306;18.926;2022-12-11T01:44:07;42.75;;;20.63;;
41623;SDS011;27319;50.306;18.926;2022-12-11T01:47:44;46.30;;;20.02;;
41623;SDS011;27319;50.306;18.926;2022-12-11T01:51:46;53.53;;;21.80;;
41623;SDS011;27319;50.306;18.926;2022-12-11T01:55:52;55.63;;;21.85;;
41623;SDS011;27319;50.306;18.926;2022-12-11T01:59:51;60.88;;;25.50;;
41623;SDS011;27319;50.306;18.926;2022-12-11T02:03:52;67.45;;;26.75;;
41623;SDS011;27319;50.306;18.926;2022-12-11T02:07:54;72.28;;;26.50;;
41623;SDS011;27319;50.306;18.926;2022-12-11T02:18:41;74.93;;;28.33;;
41623;SDS011;27319;50.306;18.926;2022-12-11T02:21:52;72.70;;;28.45;;
41623;SDS011;27319;50.306;18.926;2022-12-11T02:34:00;52.20;;;22.45;;
41623;SDS011;27319;50.306;18.926;2022-12-11T02:37:40;57.28;;;21.75;;
41623;SDS011;27319;50.306;18.926;2022-12-11T02:41:46;56.60;;;23.08;;
41623;SDS011;27319;50.306;18.926;2022-12-11T02:45:44;58.70;;;22.98;;
41623;SDS011;27319;50.306;18.926;2022-12-11T02:49:45;49.95;;;23.17;;
41623;SDS011;27319;50.306;18.926;2022-12-11T02:53:45;59.22;;;22.95;;
41623;SDS011;27319;50.306;18.926;2022-12-11T02:58:01;55.75;;;21.73;;
41623;SDS011;27319;50.306;18.926;2022-12-11T03:02:02;48.70;;;19.83;;
41623;SDS011;27319;50.306;18.926;2022-12-11T03:06:02;48.50;;;21.25;;
41623;SDS011;27319;50.306;18.926;2022-12-11T03:10:04;49.10;;;21.40;;
41623;SDS011;27319;50.306;18.926;2022-12-11T03:13:06;49.97;;;22.17;;
41623;SDS011;27319;50.306;18.926;2022-12-11T03:17:09;63.33;;;24.40;;
41623;SDS011;27319;50.306;18.926;2022-12-11T03:24:05;63.88;;;24.77;;
41623;SDS011;27319;50.306;18.926;2022-12-11T03:28:04;61.80;;;24.35;;
41623;SDS011;27319;50.306;18.926;2022-12-11T03:32:17;57.13;;;22.97;;
41623;SDS011;27319;50.306;18.926;2022-12-11T03:36:20;57.35;;;22.48;;
41623;SDS011;27319;50.306;18.926;2022-12-11T03:40:16;57.42;;;22.75;;
41623;SDS011;27319;50.306;18.926;2022-12-11T03:44:17;55.55;;;25.05;;
41623;SDS011;27319;50.306;18.926;2022-12-11T03:48:17;59.35;;;24.65;;
41623;SDS011;27319;50.306;18.926;2022-12-11T03:52:18;57.70;;;23.92;;
41623;SDS011;27319;50.306;18.926;2022-12-11T03:56:21;51.35;;;22.38;;
41623;SDS011;27319;50.306;18.926;2022-12-11T04:00:22;57.10;;;23.85;;
41623;SDS011;27319;50.306;18.926;2022-12-11T04:04:23;55.35;;;23.48;;
41623;SDS011;27319;50.306;18.926;2022-12-11T04:08:23;57.28;;;23.88;;
41623;SDS011;27319;50.306;18.926;2022-12-11T04:12:24;61.80;;;24.50;;
41623;SDS011;27319;50.306;18.926;2022-12-11T04:15:25;59.67;;;24.85;;
41623;SDS011;27319;50.306;18.926;2022-12-11T04:18:26;63.00;;;26.95;;
41623;SDS011;27319;50.306;18.926;2022-12-11T04:22:25;63.20;;;26.33;;
41623;SDS011;27319;50.306;18.926;2022-12-11T04:26:24;60.93;;;25.10;;
41623;SDS011;27319;50.306;18.926;2022-12-11T04:30:25;67.28;;;25.63;;
41623;SDS011;27319;50.306;18.926;2022-12-11T04:34:28;59.13;;;25.15;;
41623;SDS011;27319;50.306;18.926;2022-12-11T04:38:29;51.47;;;22.05;;
41623;SDS011;27319;50.306;18.926;2022-12-11T04:42:30;61.92;;;25.90;;
41623;SDS011;27319;50.306;18.926;2022-12-11T04:46:30;64.53;;;26.23;;
41623;SDS011;27319;50.306;18.926;2022-12-11T04:50:31;54.38;;;24.33;;
41623;SDS011;27319;50.306;18.926;2022-12-11T04:54:32;55.95;;;23.75;;
41623;SDS011;27319;50.306;18.926;2022-12-11T04:58:32;62.25;;;25.83;;
41623;SDS011;27319;50.306;18.926;2022-12-11T05:02:34;65.85;;;26.65;;
41623;SDS011;27319;50.306;18.926;2022-12-11T05:06:34;66.55;;;28.15;;
41623;SDS011;27319;50.306;18.926;2022-12-11T05:10:34;56.83;;;25.73;;
41623;SDS011;27319;50.306;18.926;2022-12-11T05:13:35;59.78;;;25.73;;
41623;SDS011;27319;50.306;18.926;2022-12-11T05:16:36;60.45;;;25.38;;
41623;SDS011;27319;50.306;18.926;2022-12-11T05:20:37;58.30;;;25.67;;
41623;SDS011;27319;50.306;18.926;2022-12-11T05:24:38;49.45;;;22.02;;
41623;SDS011;27319;50.306;18.926;2022-12-11T05:28:39;55.95;;;22.45;;
41623;SDS011;27319;50.306;18.926;2022-12-11T05:32:39;48.25;;;20.45;;
41623;SDS011;27319;50.306;18.926;2022-12-11T05:36:40;48.42;;;20.38;;
41623;SDS011;27319;50.306;18.926;2022-12-11T05:40:41;49.03;;;21.30;;
41623;SDS011;27319;50.306;18.926;2022-12-11T05:44:41;54.00;;;23.40;;
41623;SDS011;27319;50.306;18.926;2022-12-11T05:48:43;44.42;;;20.63;;
41623;SDS011;27319;50.306;18.926;2022-12-11T05:52:43;42.25;;;19.27;;
41623;SDS011;27319;50.306;18.926;2022-12-11T05:56:44;41.92;;;20.27;;
41623;SDS011;27319;50.306;18.926;2022-12-11T06:00:45;41.92;;;21.35;;
41623;SDS011;27319;50.306;18.926;2022-12-11T06:04:48;43.72;;;22.33;;
41623;SDS011;27319;50.306;18.926;2022-12-11T06:08:49;43.45;;;21.92;;
41623;SDS011;27319;50.306;18.926;2022-12-11T06:12:37;43.17;;;21.38;;
41623;SDS011;27319;50.306;18.926;2022-12-11T06:15:38;51.90;;;22.42;;
41623;SDS011;27319;50.306;18.926;2022-12-11T06:19:41;50.63;;;23.92;;
41623;SDS011;27319;50.306;18.926;2022-12-11T06:23:43;58.75;;;26.60;;
41623;SDS011;27319;50.306;18.926;2022-12-11T06:27:43;47.15;;;21.15;;
41623;SDS011;27319;50.306;18.926;2022-12-11T06:31:43;46.03;;;22.05;;
41623;SDS011;27319;50.306;18.926;2022-12-11T06:35:44;52.10;;;23.83;;
41623;SDS011;27319;50.306;18.926;2022-12-11T06:39:45;53.30;;;23.65;;
41623;SDS011;27319;50.306;18.926;2022-12-11T06:43:46;53.45;;;22.55;;
41623;SDS011;27319;50.306;18.926;2022-12-11T06:47:47;44.13;;;21.25;;
41623;SDS011;27319;50.306;18.926;2022-12-11T06:51:47;35.22;;;19.52;;
41623;SDS011;27319;50.306;18.926;2022-12-11T06:55:48;36.20;;;18.75;;
41623;SDS011;27319;50.306;18.926;2022-12-11T06:59:51;33.80;;;18.17;;
41623;SDS011;27319;50.306;18.926;2022-12-11T07:03:56;36.88;;;18.98;;
41623;SDS011;27319;50.306;18.926;2022-12-11T07:07:53;31.10;;;17.90;;
41623;SDS011;27319;50.306;18.926;2022-12-11T07:11:53;30.15;;;15.68;;
41623;SDS011;27319;50.306;18.926;2022-12-11T07:14:55;30.88;;;17.00;;
41623;SDS011;27319;50.306;18.926;2022-12-11T07:18:55;35.80;;;17.50;;
41623;SDS011;27319;50.306;18.926;2022-12-11T07:22:56;38.15;;;19.02;;
41623;SDS011;27319;50.306;18.926;2022-12-11T07:26:57;36.20;;;18.25;;
41623;SDS011;27319;50.306;18.926;2022-12-11T07:30:57;37.30;;;19.25;;
41623;SDS011;27319;50.306;18.926;2022-12-11T07:34:58;41.28;;;22.73;;
41623;SDS011;27319;50.306;18.926;2022-12-11T07:38:59;44.42;;;25.98;;
41623;SDS011;27319;50.306;18.926;2022-12-11T07:42:59;41.25;;;21.90;;
41623;SDS011;27319;50.306;18.926;2022-12-11T07:46:05;38.97;;;20.50;;
41623;SDS011;27319;50.306;18.926;2022-12-11T07:50:05;37.08;;;20.55;;
41623;SDS011;27319;50.306;18.926;2022-12-11T07:54:06;38.25;;;21.27;;
41623;SDS011;27319;50.306;18.926;2022-12-11T07:58:06;37.67;;;21.50;;
41623;SDS011;27319;50.306;18.926;2022-12-11T08:02:08;35.35;;;19.98;;
41623;SDS011;27319;50.306;18.926;2022-12-11T08:06:07;36.05;;;20.30;;
41623;SDS011;27319;50.306;18.926;2022-12-11T08:10:08;37.75;;;18.83;;
41623;SDS011;27319;50.306;18.926;2022-12-11T08:13:09;36.35;;;17.98;;
41623;SDS011;27319;50.306;18.926;2022-12-11T08:16:11;37.15;;;18.52;;
41623;SDS011;27319;50.306;18.926;2022-12-11T08:19:13;34.83;;;18.23;;
41623;SDS011;27319;50.306;18.926;2022-12-11T08:22:14;43.35;;;21.42;;
41623;SDS011;27319;50.306;18.926;2022-12-11T08:25:15;45.25;;;23.60;;
41623;SDS011;27319;50.306;18.926;2022-12-11T08:28:16;41.72;;;23.48;;
41623;SDS011;27319;50.306;18.926;2022-12-11T08:31:18;44.33;;;22.33;;
41623;SDS011;27319;50.306;18.926;2022-12-11T08:34:19;47.22;;;22.60;;
41623;SDS011;27319;50.306;18.926;2022-12-11T08:37:20;48.13;;;23.58;;
41623;SDS011;27319;50.306;18.926;2022-12-11T08:40:21;50.97;;;26.33;;
41623;SDS011;27319;50.306;18.926;2022-12-11T08:43:21;40.40;;;19.58;;
41623;SDS011;27319;50.306;18.926;2022-12-11T08:46:24;37.90;;;19.15;;
41623;SDS011;27319;50.306;18.926;2022-12-11T08:49:26;41.03;;;20.33;;
41623;SDS011;27319;50.306;18.926;2022-12-11T08:52:27;41.08;;;20.50;;
41623;SDS011;27319;50.306;18.926;2022-12-11T08:55:30;37.80;;;18.85;;
41623;SDS011;27319;50.306;18.926;2022-12-11T08:58:32;36.38;;;19.30;;
41623;SDS011;27319;50.306;18.926;2022-12-11T09:01:33;38.28;;;20.98;;
41623;SDS011;27319;50.306;18.926;2022-12-11T09:04:34;38.05;;;20.65;;
41623;SDS011;27319;50.306;18.926;2022-12-11T09:07:35;44.70;;;23.10;;
41623;SDS011;27319;50.306;18.926;2022-12-11T09:10:37;37.88;;;20.52;;
41623;SDS011;27319;50.306;18.926;2022-12-11T09:13:38;43.58;;;20.50;;
41623;SDS011;27319;50.306;18.926;2022-12-11T09:16:40;39.47;;;21.65;;
41623;SDS011;27319;50.306;18.926;2022-12-11T09:19:41;36.65;;;20.25;;
41623;SDS011;27319;50.306;18.926;2022-12-11T09:22:42;49.10;;;25.45;;
41623;SDS011;27319;50.306;18.926;2022-12-11T09:25:43;46.30;;;23.60;;
41623;SDS011;27319;50.306;18.926;2022-12-11T09:28:44;40.65;;;22.02;;
41623;SDS011;27319;50.306;18.926;2022-12-11T09:31:46;45.83;;;21.52;;
41623;SDS011;27319;50.306;18.926;2022-12-11T09:34:49;42.97;;;20.45;;
41623;SDS011;27319;50.306;18.926;2022-12-11T09:37:51;45.45;;;23.42;;
41623;SDS011;27319;50.306;18.926;2022-12-11T09:41:54;45.22;;;24.02;;
41623;SDS011;27319;50.306;18.926;2022-12-11T09:45:09;35.42;;;19.80;;
41623;SDS011;27319;50.306;18.926;2022-12-11T09:48:14;36.35;;;19.27;;
41623;SDS011;27319;50.306;18.926;2022-12-11T09:54:38;34.33;;;18.75;;
41623;SDS011;27319;50.306;18.926;2022-12-11T09:57:49;29.50;;;16.38;;
41623;SDS011;27319;50.306;18.926;2022-12-11T10:01:05;33.90;;;17.63;;
41623;SDS011;27319;50.306;18.926;2022-12-11T10:08:50;34.87;;;19.17;;
41623;SDS011;27319;50.306;18.926;2022-12-11T10:12:47;32.25;;;18.08;;
41623;SDS011;27319;50.306;18.926;2022-12-11T10:19:17;36.55;;;20.08;;
41623;SDS011;27319;50.306;18.926;2022-12-11T10:22:20;39.22;;;21.70;;
41623;SDS011;27319;50.306;18.926;2022-12-11T10:25:26;37.65;;;20.35;;
41623;SDS011;27319;50.306;18.926;2022-12-11T10:28:31;48.45;;;21.80;;
41623;SDS011;27319;50.306;18.926;2022-12-11T10:31:36;41.45;;;23.40;;
41623;SDS011;27319;50.306;18.926;2022-12-11T10:34:40;37.95;;;21.95;;
41623;SDS011;27319;50.306;18.926;2022-12-11T10:37:44;40.60;;;20.38;;
41623;SDS011;27319;50.306;18.926;2022-12-11T10:40:47;41.08;;;22.80;;
41623;SDS011;27319;50.306;18.926;2022-12-11T10:43:51;41.33;;;21.75;;
41623;SDS011;27319;50.306;18.926;2022-12-11T10:50:20;42.63;;;22.58;;
41623;SDS011;27319;50.306;18.926;2022-12-11T10:57:30;31.98;;;18.02;;
41623;SDS011;27319;50.306;18.926;2022-12-11T11:00:37;34.30;;;18.88;;
41623;SDS011;27319;50.306;18.926;2022-12-11T11:04:56;39.22;;;19.67;;
41623;SDS011;27319;50.306;18.926;2022-12-11T11:08:57;40.08;;;21.02;;
41623;SDS011;27319;50.306;18.926;2022-12-11T11:12:44;38.75;;;20.77;;
41623;SDS011;27319;50.306;18.926;2022-12-11T11:15:57;43.40;;;22.88;;
41623;SDS011;27319;50.306;18.926;2022-12-11T11:19:44;43.08;;;22.63;;
41623;SDS011;27319;50.306;18.926;2022-12-11T11:22:43;43.90;;;23.48;;
41623;SDS011;27319;50.306;18.926;2022-12-11T11:25:51;38.95;;;19.98;;
41623;SDS011;27319;50.306;18.926;2022-12-11T11:28:54;47.03;;;23.50;;
41623;SDS011;27319;50.306;18.926;2022-12-11T11:31:58;51.20;;;25.10;;
41623;SDS011;27319;50.306;18.926;2022-12-11T11:35:18;51.80;;;27.65;;
41623;SDS011;27319;50.306;18.926;2022-12-11T11:38:22;52.85;;;27.30;;
41623;SDS011;27319;50.306;18.926;2022-12-11T11:41:27;48.90;;;24.70;;
41623;SDS011;27319;50.306;18.926;2022-12-11T11:44:39;53.95;;;28.23;;
41623;SDS011;27319;50.306;18.926;2022-12-11T11:54:49;59.15;;;29.23;;
41623;SDS011;27319;50.306;18.926;2022-12-11T11:58:16;67.55;;;34.80;;
41623;SDS011;27319;50.306;18.926;2022-12-11T12:01:24;65.30;;;30.83;;
41623;SDS011;27319;50.306;18.926;2022-12-11T12:04:26;59.60;;;32.03;;
41623;SDS011;27319;50.306;18.926;2022-12-11T12:07:36;45.53;;;23.60;;
41623;SDS011;27319;50.306;18.926;2022-12-11T12:10:47;45.97;;;21.60;;
41623;SDS011;27319;50.306;18.926;2022-12-11T12:14:24;40.80;;;22.08;;
41623;SDS011;27319;50.306;18.926;2022-12-11T12:17:34;44.50;;;21.73;;
41623;SDS011;27319;50.306;18.926;2022-12-11T12:21:40;45.50;;;22.25;;
41623;SDS011;27319;50.306;18.926;2022-12-11T12:27:55;44.97;;;21.42;;
41623;SDS011;27319;50.306;18.926;2022-12-11T12:34:15;45.92;;;22.83;;
41623;SDS011;27319;50.306;18.926;2022-12-11T12:41:31;42.45;;;21.98;;
41623;SDS011;27319;50.306;18.926;2022-12-11T12:44:21;43.08;;;23.42;;
41623;SDS011;27319;50.306;18.926;2022-12-11T12:47:25;46.50;;;24.23;;
41623;SDS011;27319;50.306;18.926;2022-12-11T12:51:25;43.90;;;22.73;;
41623;SDS011;27319;50.306;18.926;2022-12-11T12:54:27;49.72;;;26.30;;
41623;SDS011;27319;50.306;18.926;2022-12-11T13:01:58;56.00;;;28.23;;
41623;SDS011;27319;50.306;18.926;2022-12-11T13:06:05;52.65;;;26.55;;
41623;SDS011;27319;50.306;18.926;2022-12-11T13:10:55;51.05;;;28.77;;
41623;SDS011;27319;50.306;18.926;2022-12-11T13:13:33;65.43;;;33.22;;
41623;SDS011;27319;50.306;18.926;2022-12-11T13:16:42;67.93;;;34.78;;
41623;SDS011;27319;50.306;18.926;2022-12-11T13:19:50;68.28;;;35.00;;
41623;SDS011;27319;50.306;18.926;2022-12-11T13:23:13;64.32;;;30.77;;
41623;SDS011;27319;50.306;18.926;2022-12-11T13:26:31;61.13;;;31.38;;
41623;SDS011;27319;50.306;18.926;2022-12-11T13:30:28;55.80;;;27.67;;
41623;SDS011;27319;50.306;18.926;2022-12-11T13:34:37;55.65;;;28.85;;
41623;SDS011;27319;50.306;18.926;2022-12-11T13:38:36;64.55;;;31.77;;
41623;SDS011;27319;50.306;18.926;2022-12-11T13:42:38;60.05;;;30.45;;
41623;SDS011;27319;50.306;18.926;2022-12-11T13:46:40;64.65;;;31.95;;
41623;SDS011;27319;50.306;18.926;2022-12-11T13:50:41;61.35;;;32.40;;
41623;SDS011;27319;50.306;18.926;2022-12-11T13:54:45;58.90;;;29.10;;
41623;SDS011;27319;50.306;18.926;2022-12-11T13:58:42;65.03;;;32.08;;
41623;SDS011;27319;50.306;18.926;2022-12-11T14:02:42;55.05;;;29.45;;
41623;SDS011;27319;50.306;18.926;2022-12-11T14:06:43;56.95;;;28.25;;
41623;SDS011;27319;50.306;18.926;2022-12-11T14:10:08;54.55;;;28.73;;
41623;SDS011;27319;50.306;18.926;2022-12-11T14:13:25;66.88;;;32.33;;
41623;SDS011;27319;50.306;18.926;2022-12-11T14:16:30;57.43;;;30.20;;
41623;SDS011;27319;50.306;18.926;2022-12-11T14:20:31;57.90;;;29.25;;
41623;SDS011;27319;50.306;18.926;2022-12-11T14:23:35;55.08;;;29.60;;
41623;SDS011;27319;50.306;18.926;2022-12-11T14:26:36;59.45;;;31.30;;
41623;SDS011;27319;50.306;18.926;2022-12-11T14:30:37;49.15;;;27.80;;
41623;SDS011;27319;50.306;18.926;2022-12-11T14:34:40;55.25;;;27.67;;
41623;SDS011;27319;50.306;18.926;2022-12-11T14:38:43;50.45;;;26.40;;
41623;SDS011;27319;50.306;18.926;2022-12-11T14:42:43;53.35;;;27.00;;
41623;SDS011;27319;50.306;18.926;2022-12-11T14:46:44;53.33;;;28.50;;
41623;SDS011;27319;50.306;18.926;2022-12-11T14:50:44;48.45;;;23.88;;
41623;SDS011;27319;50.306;18.926;2022-12-11T14:54:45;50.92;;;26.65;;
41623;SDS011;27319;50.306;18.926;2022-12-11T14:58:27;47.33;;;25.50;;
41623;SDS011;27319;50.306;18.926;2022-12-11T15:02:32;44.20;;;25.48;;
41623;SDS011;27319;50.306;18.926;2022-12-11T15:06:44;50.78;;;25.95;;
41623;SDS011;27319;50.306;18.926;2022-12-11T15:14:01;47.22;;;25.13;;
41623;SDS011;27319;50.306;18.926;2022-12-11T15:18:00;50.33;;;27.27;;
41623;SDS011;27319;50.306;18.926;2022-12-11T15:22:04;54.92;;;29.52;;
41623;SDS011;27319;50.306;18.926;2022-12-11T15:26:04;56.40;;;27.88;;
41623;SDS011;27319;50.306;18.926;2022-12-11T15:30:19;48.25;;;26.52;;
41623;SDS011;27319;50.306;18.926;2022-12-11T15:34:23;43.40;;;23.13;;
41623;SDS011;27319;50.306;18.926;2022-12-11T15:38:01;55.53;;;28.80;;
41623;SDS011;27319;50.306;18.926;2022-12-11T15:42:08;60.40;;;30.88;;
41623;SDS011;27319;50.306;18.926;2022-12-11T15:46:11;53.42;;;26.58;;
41623;SDS011;27319;50.306;18.926;2022-12-11T15:50:16;51.45;;;27.55;;
41623;SDS011;27319;50.306;18.926;2022-12-11T15:54:15;68.75;;;33.88;;
41623;SDS011;27319;50.306;18.926;2022-12-11T15:58:16;56.65;;;28.35;;
41623;SDS011;27319;50.306;18.926;2022-12-11T16:02:16;73.72;;;32.75;;
41623;SDS011;27319;50.306;18.926;2022-12-11T16:06:17;59.55;;;31.17;;
41623;SDS011;27319;50.306;18.926;2022-12-11T16:10:18;67.10;;;32.80;;
41623;SDS011;27319;50.306;18.926;2022-12-11T16:13:21;64.10;;;32.60;;
41623;SDS011;27319;50.306;18.926;2022-12-11T16:16:22;63.28;;;32.20;;
41623;SDS011;27319;50.306;18.926;2022-12-11T16:19:23;59.28;;;31.15;;
41623;SDS011;27319;50.306;18.926;2022-12-11T16:23:23;63.33;;;31.55;;
41623;SDS011;27319;50.306;18.926;2022-12-11T16:27:24;62.13;;;30.88;;
41623;SDS011;27319;50.306;18.926;2022-12-11T16:31:25;63.97;;;32.22;;
41623;SDS011;27319;50.306;18.926;2022-12-11T16:35:25;66.57;;;30.67;;
41623;SDS011;27319;50.306;18.926;2022-12-11T16:39:26;77.55;;;34.20;;
41623;SDS011;27319;50.306;18.926;2022-12-11T16:43:26;60.53;;;31.38;;
41623;SDS011;27319;50.306;18.926;2022-12-11T16:47:28;55.95;;;28.80;;
41623;SDS011;27319;50.306;18.926;2022-12-11T16:51:28;65.95;;;32.60;;
41623;SDS011;27319;50.306;18.926;2022-12-11T16:55:28;62.40;;;31.52;;
41623;SDS011;27319;50.306;18.926;2022-12-11T16:59:29;56.33;;;30.05;;
41623;SDS011;27319;50.306;18.926;2022-12-11T17:03:30;58.55;;;30.02;;
41623;SDS011;27319;50.306;18.926;2022-12-11T17:07:31;67.22;;;33.20;;
41623;SDS011;27319;50.306;18.926;2022-12-11T17:11:31;72.30;;;36.28;;
41623;SDS011;27319;50.306;18.926;2022-12-11T17:14:32;70.32;;;33.00;;
41623;SDS011;27319;50.306;18.926;2022-12-11T17:17:33;65.15;;;34.75;;
41623;SDS011;27319;50.306;18.926;2022-12-11T17:20:38;71.43;;;37.20;;
41623;SDS011;27319;50.306;18.926;2022-12-11T17:23:43;59.95;;;32.25;;
41623;SDS011;27319;50.306;18.926;2022-12-11T17:26:44;59.83;;;32.13;;
41623;SDS011;27319;50.306;18.926;2022-12-11T17:29:45;58.53;;;31.75;;
41623;SDS011;27319;50.306;18.926;2022-12-11T17:32:49;60.35;;;30.80;;
41623;SDS011;27319;50.306;18.926;2022-12-11T17:35:50;75.50;;;36.70;;
41623;SDS011;27319;50.306;18.926;2022-12-11T17:38:51;72.57;;;36.17;;
41623;SDS011;27319;50.306;18.926;2022-12-11T17:42:52;63.22;;;33.00;;
41623;SDS011;27319;50.306;18.926;2022-12-11T17:46:52;68.68;;;32.70;;
41623;SDS011;27319;50.306;18.926;2022-12-11T17:50:53;55.53;;;29.65;;
41623;SDS011;27319;50.306;18.926;2022-12-11T17:54:53;63.30;;;32.35;;
41623;SDS011;27319;50.306;18.926;2022-12-11T17:58:54;63.30;;;32.35;;
41623;SDS011;27319;50.306;18.926;2022-12-11T18:02:55;69.43;;;34.90;;
41623;SDS011;27319;50.306;18.926;2022-12-11T18:06:55;60.95;;;31.20;;
41623;SDS011;27319;50.306;18.926;2022-12-11T18:10:56;65.30;;;32.63;;
41623;SDS011;27319;50.306;18.926;2022-12-11T18:14:04;64.82;;;32.55;;
41623;SDS011;27319;50.306;18.926;2022-12-11T18:18:06;63.70;;;33.03;;
41623;SDS011;27319;50.306;18.926;2022-12-11T18:22:06;64.03;;;32.80;;
41623;SDS011;27319;50.306;18.926;2022-12-11T18:26:07;54.28;;;28.08;;
41623;SDS011;27319;50.306;18.926;2022-12-11T18:30:07;59.65;;;29.17;;
41623;SDS011;27319;50.306;18.926;2022-12-11T18:34:08;58.63;;;30.55;;
41623;SDS011;27319;50.306;18.926;2022-12-11T18:37:09;61.65;;;29.77;;
41623;SDS011;27319;50.306;18.926;2022-12-11T18:41:10;65.75;;;31.88;;
41623;SDS011;27319;50.306;18.926;2022-12-11T18:45:11;61.25;;;28.65;;
41623;SDS011;27319;50.306;18.926;2022-12-11T18:49:11;60.42;;;31.42;;
41623;SDS011;27319;50.306;18.926;2022-12-11T18:53:12;65.13;;;29.02;;
41623;SDS011;27319;50.306;18.926;2022-12-11T18:57:13;48.63;;;24.85;;
41623;SDS011;27319;50.306;18.926;2022-12-11T19:01:24;56.05;;;26.65;;
41623;SDS011;27319;50.306;18.926;2022-12-11T19:05:20;53.92;;;27.67;;
41623;SDS011;27319;50.306;18.926;2022-12-11T19:09:21;46.20;;;24.02;;
41623;SDS011;27319;50.306;18.926;2022-12-11T19:12:42;41.90;;;23.75;;
41623;SDS011;27319;50.306;18.926;2022-12-11T19:15:43;42.60;;;22.85;;
41623;SDS011;27319;50.306;18.926;2022-12-11T19:18:44;51.22;;;26.65;;
41623;SDS011;27319;50.306;18.926;2022-12-11T19:21:46;54.65;;;27.27;;
41623;SDS011;27319;50.306;18.926;2022-12-11T19:24:48;47.58;;;25.83;;
41623;SDS011;27319;50.306;18.926;2022-12-11T19:28:49;63.55;;;32.83;;
41623;SDS011;27319;50.306;18.926;2022-12-11T19:32:49;71.78;;;34.05;;
41623;SDS011;27319;50.306;18.926;2022-12-11T19:35:59;72.15;;;32.60;;
41623;SDS011;27319;50.306;18.926;2022-12-11T19:39:04;68.28;;;34.65;;
41623;SDS011;27319;50.306;18.926;2022-12-11T19:42:05;66.40;;;32.40;;
41623;SDS011;27319;50.306;18.926;2022-12-11T19:46:07;59.80;;;29.98;;
41623;SDS011;27319;50.306;18.926;2022-12-11T19:50:07;60.85;;;29.92;;
41623;SDS011;27319;50.306;18.926;2022-12-11T19:54:08;68.18;;;32.75;;
41623;SDS011;27319;50.306;18.926;2022-12-11T19:58:08;69.78;;;30.63;;
41623;SDS011;27319;50.306;18.926;2022-12-11T20:02:09;64.97;;;31.13;;
41623;SDS011;27319;50.306;18.926;2022-12-11T20:06:09;57.40;;;28.45;;
41623;SDS011;27319;50.306;18.926;2022-12-11T20:10:10;63.53;;;31.58;;
41623;SDS011;27319;50.306;18.926;2022-12-11T20:13:51;67.72;;;31.75;;
41623;SDS011;27319;50.306;18.926;2022-12-11T20:16:55;81.63;;;37.28;;
41623;SDS011;27319;50.306;18.926;2022-12-11T20:19:57;70.68;;;30.58;;
41623;SDS011;27319;50.306;18.926;2022-12-11T20:22:59;87.07;;;32.95;;
41623;SDS011;27319;50.306;18.926;2022-12-11T20:26:04;69.38;;;32.55;;
41623;SDS011;27319;50.306;18.926;2022-12-11T20:29:07;55.90;;;28.27;;
41623;SDS011;27319;50.306;18.926;2022-12-11T20:32:08;83.53;;;32.45;;
41623;SDS011;27319;50.306;18.926;2022-12-11T20:35:11;60.75;;;30.15;;
41623;SDS011;27319;50.306;18.926;2022-12-11T20:38:12;52.90;;;27.67;;
41623;SDS011;27319;50.306;18.926;2022-12-11T20:41:14;53.58;;;26.63;;
41623;SDS011;27319;50.306;18.926;2022-12-11T20:44:16;50.60;;;25.60;;
41623;SDS011;27319;50.306;18.926;2022-12-11T20:47:19;66.70;;;28.52;;
41623;SDS011;27319;50.306;18.926;2022-12-11T20:50:20;59.35;;;26.67;;
41623;SDS011;27319;50.306;18.926;2022-12-11T20:53:22;61.33;;;28.60;;
41623;SDS011;27319;50.306;18.926;2022-12-11T20:56:23;54.20;;;25.85;;
41623;SDS011;27319;50.306;18.926;2022-12-11T20:59:26;72.63;;;31.40;;
41623;SDS011;27319;50.306;18.926;2022-12-11T21:02:27;61.13;;;27.88;;
41623;SDS011;27319;50.306;18.926;2022-12-11T21:05:30;60.05;;;27.70;;
41623;SDS011;27319;50.306;18.926;2022-12-11T21:08:31;62.20;;;29.52;;
41623;SDS011;27319;50.306;18.926;2022-12-11T21:11:32;59.53;;;29.65;;
41623;SDS011;27319;50.306;18.926;2022-12-11T21:14:33;51.50;;;24.08;;
41623;SDS011;27319;50.306;18.926;2022-12-11T21:17:34;66.70;;;30.95;;
41623;SDS011;27319;50.306;18.926;2022-12-11T21:20:34;58.50;;;27.33;;
41623;SDS011;27319;50.306;18.926;2022-12-11T21:23:36;50.35;;;24.63;;
41623;SDS011;27319;50.306;18.926;2022-12-11T21:26:36;55.90;;;26.58;;
41623;SDS011;27319;50.306;18.926;2022-12-11T21:29:37;55.63;;;27.58;;
41623;SDS011;27319;50.306;18.926;2022-12-11T21:32:38;48.15;;;23.23;;
41623;SDS011;27319;50.306;18.926;2022-12-11T21:35:39;46.00;;;24.05;;
41623;SDS011;27319;50.306;18.926;2022-12-11T21:38:42;54.20;;;26.25;;
41623;SDS011;27319;50.306;18.926;2022-12-11T21:41:44;49.58;;;25.50;;
41623;SDS011;27319;50.306;18.926;2022-12-11T21:44:45;75.78;;;32.63;;
41623;SDS011;27319;50.306;18.926;2022-12-11T21:47:46;55.05;;;28.08;;
41623;SDS011;27319;50.306;18.926;2022-12-11T21:50:47;78.28;;;33.50;;
41623;SDS011;27319;50.306;18.926;2022-12-11T21:53:48;55.65;;;26.58;;